ADDS METAR Data INFO
IDs: Format: Raw Decoded Include TAF

Data at: 1211 UTC 21 Jun 2018

KRCM 211155Z AUTO 24007KT 10SM CLR 17/15 A2981 RMK AO2
KRCM 211135Z AUTO 24004KT 10SM CLR 17/15 A2980 RMK AO2
KRCM 211115Z AUTO 24004KT 10SM CLR 17/15 A2980 RMK AO2
KRCM 211055Z AUTO 26004KT 10SM CLR 17/15 A2980 RMK AO2
KRCM 211035Z AUTO 24004KT 10SM CLR 17/15 A2980 RMK AO2
KRCM 211015Z AUTO 24004KT 10SM CLR 17/15 A2979 RMK AO2
KRCM 210955Z AUTO 23003KT 10SM SCT035 17/15 A2979 RMK AO2
KRCM 210935Z AUTO 28003KT 10SM SCT035 17/15 A2979 RMK AO2
KRCM 210915Z AUTO 27003KT 10SM CLR 18/15 A2980 RMK AO2
KRCM 210855Z AUTO 30003KT 10SM CLR 18/16 A2980 RMK AO2
KRCM 210835Z AUTO 29005KT 10SM SCT023 SCT095 18/16 A2980 RMK AO2
KRCM 210815Z AUTO 30006KT 10SM SCT023 SCT080 BKN095 20/16 A2980 RMK AO2
KRCM 210755Z AUTO 30006KT 10SM BKN021 20/17 A2980 RMK AO2
KRCM 210735Z AUTO 28006KT 10SM BKN019 20/18 A2980 RMK AO2
KRCM 210715Z AUTO 25011G15KT 10SM CLR 21/19 A2979 RMK AO2 LTG DSNT NE AND S
KRCM 210655Z AUTO 22005KT 10SM SCT050 SCT090 SCT110 21/20 A2980 RMK AO2 LTG DSNT NE
KRCM 210635Z AUTO 18005KT 4SM -RA SCT010 BKN050 OVC100 21/20 A2980 RMK AO2 LTG DSNT NE
KRCM 210615Z AUTO 20005KT 10SM -RA SCT006 BKN048 OVC070 21/20 A2980 RMK AO2
KRCM 210555Z AUTO 00000KT 10SM SCT004 BKN048 OVC060 21/20 A2979 RMK AO2
KRCM 210535Z AUTO 22004KT 10SM BKN004 BKN050 21/20 A2980 RMK AO2
KRCM 210515Z AUTO 18003KT 10SM BKN004 BKN050 21/20 A2979 RMK AO2
KRCM 210455Z AUTO 21004KT 10SM CLR 21/20 A2979 RMK AO2
KRCM 210435Z AUTO 17006KT 10SM SCT050 21/20 A2979 RMK AO2
KRCM 210415Z AUTO 17006KT 10SM CLR 21/20 A2980 RMK AO2
KRCM 210355Z AUTO 16006KT 10SM CLR 22/20 A2980 RMK AO2
KRCM 210335Z AUTO 18005KT 10SM CLR 22/20 A2981 RMK AO2
KRCM 210315Z AUTO 17005KT 10SM CLR 22/20 A2981 RMK AO2
KRCM 210255Z AUTO 17007KT 10SM CLR 22/20 A2981 RMK AO2
KRCM 210235Z AUTO 15006KT 10SM SCT045 SCT050 22/21 A2981 RMK AO2
KRCM 210215Z AUTO 16008KT 10SM SCT043 BKN050 BKN065 23/21 A2980 RMK AO2
KRCM 210155Z AUTO 16007KT 10SM BKN044 BKN050 23/21 A2980 RMK AO2
KRCM 210135Z AUTO 15006KT 10SM SCT050 23/21 A2980 RMK AO2
KRCM 210115Z AUTO 16006KT 10SM SCT050 24/21 A2980 RMK AO2
KRCM 210055Z AUTO 15007KT 10SM SCT042 25/21 A2980 RMK AO2
KRCM 210035Z AUTO 15007KT 10SM SCT044 26/21 A2980 RMK AO2
KRCM 210015Z AUTO 23004KT 10SM CLR 26/17 A2980 RMK AO2
KRCM 202355Z AUTO 26006KT 10SM CLR 27/16 A2980 RMK AO2
KRCM 202335Z AUTO 26007KT 10SM CLR 27/16 A2980 RMK AO2
KRCM 202315Z AUTO 24007KT 10SM CLR 28/16 A2980 RMK AO2
KRCM 202255Z AUTO 25004KT 10SM VCTS CLR 28/17 A2980 RMK AO2 LTG DSNT E AND SE
KRCM 202235Z AUTO 21005KT 10SM CLR 26/17 A2980 RMK AO2
KRCM 202215Z AUTO 25003KT 10SM SCT042 26/17 A2978 RMK AO2 LTG DSNT S
KRCM 202155Z AUTO 29007KT 10SM SCT040 26/17 A2976 RMK AO2
KRCM 202135Z AUTO 28005KT 10SM CLR 27/19 A2977 RMK AO2 LTG DSNT E
KRCM 202115Z AUTO 32005KT 10SM SCT080 27/18 A2976 RMK AO2 LTG DSNT E
KRCM 202055Z AUTO 26004KT 10SM SCT080 SCT100 26/18 A2978 RMK AO2 LTG DSNT E
KRCM 202035Z AUTO 27009KT 10SM SCT055 SCT070 SCT100 27/18 A2978 RMK AO2 LTG DSNT NE THRU SE
KRCM 202015Z AUTO 28004KT 10SM BKN055 BKN080 27/19 A2979 RMK AO2 LTG DSNT E THRU S
KRCM 201955Z AUTO 29003G09KT 10SM BKN055 BKN070 BKN080 28/18 A2980 RMK AO2 LTG DSNT SE
KRCM 201935Z AUTO 27007KT 10SM VCTS SCT048 BKN055 27/20 A2980 RMK AO2 LTG DSNT NE THRU S
KRCM 201915Z AUTO 25007KT 7SM 28/20 A2980 RMK AO2 LTG DSNT NE THRU S
KRCM 201855Z AUTO 22008KT 10SM -TSRA 27/21 A2981 RMK AO2 LTG DSNT E THRU S
KRCM 201835Z AUTO 25006KT 10SM 27/21 A2981 RMK AO2 LTG DSNT S
KRCM 201815Z AUTO 26009G21KT 10SM 27/21 A2982 RMK AO2
KRCM 201755Z AUTO 20012KT 10SM 31/20 A2982 RMK AO2
KRCM 201735Z AUTO 20012G18KT 184V244 10SM 30/20 A2983 RMK AO2
KRCM 201715Z AUTO 21010G17KT 10SM 28/20 A2983 RMK AO2
KRCM 201655Z AUTO 22009G16KT 10SM 28/20 A2983 RMK AO2
KRCM 201635Z AUTO 22013G19KT 10SM 29/20 A2983 RMK AO2
KRCM 201615Z AUTO 20010G16KT 10SM 29/20 A2984 RMK AO2
KRCM 201555Z AUTO 20013G18KT 10SM 29/20 A2984 RMK AO2
KRCM 201535Z AUTO 19012G15KT 10SM 29/20 A2983 RMK AO2
KRCM 201515Z AUTO 19009G18KT 10SM 28/20 A2983 RMK AO2
KRCM 201455Z AUTO 19014G19KT 10SM 28/20 A2984 RMK AO2
KRCM 201435Z AUTO 19014G18KT 10SM 27/20 A2984 RMK AO2
KRCM 201415Z AUTO 19014G17KT 10SM CLR 27/20 A2985 RMK AO2
KRCM 201355Z AUTO 19013G19KT 10SM CLR 26/20 A2985 RMK AO2
KRCM 201335Z AUTO 18010G15KT 10SM CLR 26/20 A2985 RMK AO2
KRCM 201315Z AUTO 19010KT 10SM CLR 25/20 A2986 RMK AO2
KRCM 201255Z AUTO 18010G15KT 10SM CLR 25/20 A2986 RMK AO2
KRCM 201235Z AUTO 18008G14KT 10SM CLR 25/20 A2986 RMK AO2
KRCM 201215Z AUTO 17008KT 10SM SCT100 24/20 A2986 RMK AO2
KRCM 201155Z AUTO 17007KT 10SM SCT065 OVC110 23/20 A2986 RMK AO2
KRCM 201135Z AUTO 17006KT 10SM BKN065 OVC095 23/20 A2987 RMK AO2
KRCM 201115Z AUTO 17006KT 10SM SCT065 OVC095 23/20 A2988 RMK AO2
KRCM 201055Z AUTO 16004KT 10SM SCT055 BKN075 OVC095 23/21 A2988 RMK AO2
KRCM 201035Z AUTO 15005KT 10SM SCT055 BKN075 BKN095 22/21 A2988 RMK AO2
KRCM 201015Z AUTO 15004KT 10SM SCT055 BKN075 OVC095 22/21 A2988 RMK AO2
KRCM 200955Z AUTO 15005KT 10SM BKN055 OVC075 22/21 A2989 RMK AO2
KRCM 200935Z AUTO 15004KT 10SM SCT050 BKN070 OVC075 22/21 A2990 RMK AO2
KRCM 200915Z AUTO 15004KT 10SM SCT050 OVC060 22/21 A2989 RMK AO2
KRCM 200855Z AUTO 15004KT 10SM SCT050 OVC060 22/21 A2990 RMK AO2
KRCM 200835Z AUTO 17003KT 10SM BKN050 BKN060 22/21 A2990 RMK AO2
KRCM 200815Z AUTO 15003KT 10SM SCT060 22/21 A2990 RMK AO2
KRCM 200755Z AUTO 18003KT 10SM SCT060 22/21 A2990 RMK AO2
KRCM 200735Z AUTO 16004KT 10SM CLR 22/21 A2989 RMK AO2
KRCM 200715Z AUTO 18003KT 10SM CLR 22/20 A2989 RMK AO2
KRCM 200655Z AUTO 16003KT 10SM CLR 22/20 A2990 RMK AO2
KRCM 200635Z AUTO 15003KT 10SM CLR 22/21 A2990 RMK AO2
KRCM 200615Z AUTO 17004KT 10SM CLR 22/21 A2989 RMK AO2
KRCM 200555Z AUTO 15005KT 10SM CLR 23/21 A2990 RMK AO2
KRCM 200535Z AUTO 14004KT 10SM CLR 23/20 A2991 RMK AO2
KRCM 200515Z AUTO 00000KT 10SM CLR 23/21 A2992 RMK AO2
KRCM 200455Z AUTO 12003KT 10SM CLR 22/20 A2992 RMK AO2
KRCM 200435Z AUTO 13003KT 10SM CLR 22/21 A2991 RMK AO2
KRCM 200415Z AUTO 15003KT 10SM CLR 23/21 A2992 RMK AO2
KRCM 200355Z AUTO 14003KT 10SM CLR 23/20 A2992 RMK AO2
KRCM 200335Z AUTO 16003KT 10SM CLR 23/20 A2992 RMK AO2
KRCM 200315Z AUTO 15003KT 10SM CLR 23/20 A2992 RMK AO2
KRCM 200255Z AUTO 15003KT 10SM CLR 24/20 A2991 RMK AO2
KRCM 200235Z AUTO 13003KT 10SM CLR 24/20 A2990 RMK AO2
KRCM 200215Z AUTO 09005KT 10SM CLR 25/20 A2990 RMK AO2
KRCM 200155Z AUTO 08005KT 10SM CLR 25/20 A2989 RMK AO2
KRCM 200135Z AUTO 09003KT 10SM CLR 26/20 A2988 RMK AO2
KRCM 200115Z AUTO 15003KT 10SM CLR 27/20 A2988 RMK AO2
KRCM 200055Z AUTO 15004KT 10SM CLR 27/20 A2987 RMK AO2
KRCM 200035Z AUTO 12005KT 10SM CLR 27/21 A2986 RMK AO2
KRCM 200015Z AUTO 10005KT 10SM CLR 27/20 A2985 RMK AO2 LTG DSNT SE